createdAt,value
2019-04-23T00:00:56.239Z,15.06
2019-04-23T00:02:06.608Z,15.09
2019-04-23T00:03:16.826Z,15.06
2019-04-23T00:04:20.435Z,15.09
2019-04-23T00:05:39.465Z,15.09
2019-04-23T00:06:39.909Z,15.01
2019-04-23T00:08:48.769Z,15.01
2019-04-23T00:09:48.283Z,14.99
2019-04-23T00:10:59.156Z,14.89
2019-04-23T00:11:59.889Z,14.87
2019-04-23T00:13:02.324Z,14.88
2019-04-23T00:14:15.099Z,14.84
2019-04-23T00:15:13.569Z,14.82
2019-04-23T00:16:23.724Z,14.82
2019-04-23T00:17:30.460Z,14.79
2019-04-23T00:18:36.846Z,14.76
2019-04-23T00:19:39.752Z,14.74
2019-04-23T00:20:42.987Z,14.73
2019-04-23T00:21:46.032Z,14.69
2019-04-23T00:24:15.849Z,14.53
2019-04-23T00:26:40.290Z,14.34
2019-04-23T00:28:50.469Z,14.32
2019-04-23T00:29:56.030Z,14.32
2019-04-23T00:31:59.630Z,14.08
2019-04-23T00:33:15.671Z,14.04
2019-04-23T00:34:09.238Z,14.04
2019-04-23T00:35:12.886Z,14.02
2019-04-23T00:36:27.214Z,14.03
2019-04-23T00:39:44.000Z,13.90
2019-04-23T00:40:45.376Z,13.85
2019-04-23T00:41:50.862Z,13.85
2019-04-23T00:42:53.466Z,13.88
2019-04-23T00:44:04.069Z,13.88
2019-04-23T00:45:03.424Z,13.87
2019-04-23T00:46:09.211Z,13.86
2019-04-23T00:47:22.369Z,13.86
2019-04-23T00:48:28.248Z,13.77
2019-04-23T00:49:27.030Z,13.77
2019-04-23T00:50:38.507Z,13.69
2019-04-23T00:51:36.835Z,13.69
2019-04-23T00:52:48.761Z,13.72
2019-04-23T00:53:46.698Z,13.72
2019-04-23T00:54:57.254Z,13.68
2019-04-23T00:57:07.321Z,13.47
2019-04-23T00:58:12.472Z,13.53
2019-04-23T00:59:12.460Z,13.50
2019-04-23T01:00:28.151Z,13.50
2019-04-23T01:03:33.894Z,13.44
2019-04-23T01:04:51.020Z,13.41
2019-04-23T01:05:46.915Z,13.28
2019-04-23T01:07:01.140Z,13.28
2019-04-23T01:08:01.844Z,13.13
2019-04-23T01:09:03.732Z,12.98
2019-04-23T01:11:27.714Z,13.01
2019-04-23T01:12:38.070Z,12.99
2019-04-23T01:13:46.847Z,13.03
2019-04-23T01:14:52.023Z,13.04
2019-04-23T01:15:57.761Z,13.00
2019-04-23T01:16:49.495Z,12.97
2019-04-23T01:18:10.921Z,13.00
2019-04-23T01:19:17.691Z,12.96
2019-04-23T01:20:20.988Z,12.95
2019-04-23T01:21:13.854Z,13.01
2019-04-23T01:22:19.414Z,12.96
2019-04-23T01:23:47.050Z,12.90
2019-04-23T01:25:11.113Z,12.85
2019-04-23T01:26:23.995Z,12.77
2019-04-23T01:28:50.292Z,12.76
2019-04-23T01:29:57.934Z,12.72
2019-04-23T01:31:07.758Z,12.77
2019-04-23T01:32:10.997Z,12.69
2019-04-23T01:33:10.987Z,12.65
2019-04-23T01:34:20.163Z,12.64
2019-04-23T01:35:20.234Z,12.50
2019-04-23T01:36:28.118Z,12.46
2019-04-23T01:37:30.471Z,12.48
2019-04-23T01:38:40.510Z,12.45
2019-04-23T01:39:43.879Z,12.41
2019-04-23T01:40:45.890Z,12.41
2019-04-23T01:42:03.727Z,12.43
2019-04-23T01:42:58.708Z,12.40
2019-04-23T01:44:05.277Z,12.38
2019-04-23T01:46:24.974Z,12.11
2019-04-23T01:47:25.018Z,12.13
2019-04-23T01:48:29.979Z,12.10
2019-04-23T01:49:39.279Z,12.09
2019-04-23T01:50:43.475Z,12.04
2019-04-23T01:51:49.769Z,12.06
2019-04-23T01:52:45.578Z,12.11
2019-04-23T01:54:12.392Z,12.04
2019-04-23T01:55:00.883Z,11.94
2019-04-23T01:56:11.407Z,11.97
2019-04-23T01:57:16.616Z,12.00
2019-04-23T01:59:24.651Z,11.74
2019-04-23T02:00:28.696Z,11.78
2019-04-23T02:01:34.368Z,11.76
2019-04-23T02:02:45.740Z,11.74
2019-04-23T02:03:46.588Z,11.75
2019-04-23T02:04:52.614Z,11.76
2019-04-23T02:06:03.291Z,11.85
2019-04-23T02:09:13.387Z,11.88
2019-04-23T02:10:31.202Z,11.96
2019-04-23T02:11:16.431Z,12.05
2019-04-23T02:12:33.079Z,12.13
2019-04-23T02:13:53.281Z,12.19
2019-04-23T02:14:44.784Z,12.15
2019-04-23T02:15:42.457Z,12.11
2019-04-23T02:16:49.928Z,12.11
2019-04-23T02:17:58.600Z,12.15
2019-04-23T02:19:03.401Z,12.01
2019-04-23T02:20:09.927Z,11.95
2019-04-23T02:21:10.615Z,11.94
2019-04-23T02:22:38.937Z,11.92
2019-04-23T02:23:43.895Z,11.92
2019-04-23T02:24:54.585Z,11.92
2019-04-23T02:26:55.902Z,12.02
2019-04-23T02:29:26.626Z,12.04
2019-04-23T02:30:40.090Z,12.05
2019-04-23T02:32:42.351Z,12.05
2019-04-23T02:35:52.763Z,11.92
2019-04-23T02:36:55.003Z,11.92
2019-04-23T02:38:11.786Z,11.91
2019-04-23T02:38:56.216Z,11.81
2019-04-23T02:40:13.983Z,11.84
2019-04-23T09:09:27.691Z,17.45
2019-04-23T09:11:41.666Z,17.26
2019-04-23T09:14:52.406Z,16.96
2019-04-23T09:15:56.557Z,16.72
2019-04-23T09:17:06.162Z,16.62
2019-04-23T09:18:11.769Z,16.64
2019-04-23T09:19:16.115Z,16.63
2019-04-23T09:21:21.471Z,16.36
2019-04-23T09:22:31.165Z,16.41
2019-04-23T09:24:41.521Z,16.75
2019-04-23T09:26:56.195Z,16.88
2019-04-23T09:27:54.785Z,17.01
2019-04-23T09:28:57.992Z,17.14
2019-04-23T09:30:22.919Z,17.08
2019-04-23T09:31:30.372Z,17.12
2019-04-23T09:32:25.190Z,17.11
2019-04-23T09:33:39.403Z,17.12
2019-04-23T09:34:56.932Z,17.11
2019-04-23T09:36:06.801Z,17.25
2019-04-23T09:37:18.773Z,17.47
2019-04-23T09:38:28.033Z,17.73
2019-04-23T09:41:05.918Z,18.08
2019-04-23T09:42:04.888Z,18.24
2019-04-23T09:44:41.393Z,18.64
2019-04-23T09:45:38.584Z,18.79
2019-04-23T09:46:57.074Z,18.86
2019-04-23T09:49:19.003Z,19.29
2019-04-23T09:51:17.926Z,19.63
2019-04-23T09:52:21.947Z,19.67
2019-04-23T09:54:37.884Z,19.31
2019-04-23T09:56:42.795Z,19.47
2019-04-23T09:57:51.461Z,19.36
2019-04-23T09:58:59.109Z,19.51
2019-04-23T09:59:58.166Z,19.54
2019-04-23T10:01:26.016Z,19.63
2019-04-23T10:02:23.726Z,19.72
2019-04-23T10:03:21.244Z,19.51
2019-04-23T10:04:25.147Z,19.32
2019-04-23T10:05:28.835Z,19.31
2019-04-23T10:06:28.302Z,19.43
2019-04-23T10:07:40.518Z,19.29
2019-04-23T10:08:40.240Z,19.16
2019-04-23T10:09:42.398Z,19.13
2019-04-23T10:10:47.177Z,19.15
2019-04-23T10:11:51.246Z,19.04
2019-04-23T10:12:55.746Z,19.26
2019-04-23T10:14:00.742Z,19.49
2019-04-23T10:15:13.736Z,19.72
2019-04-23T10:16:17.059Z,19.94
2019-04-23T10:17:18.072Z,19.81
2019-04-23T10:18:22.431Z,20.03
2019-04-23T10:19:26.893Z,20.08
2019-04-23T10:20:30.917Z,19.95
2019-04-23T10:21:35.284Z,19.65
2019-04-23T10:22:39.530Z,19.52
2019-04-23T10:23:43.383Z,19.09
2019-04-23T10:24:47.071Z,19.01
2019-04-23T10:25:52.077Z,18.92
2019-04-23T10:26:57.676Z,18.89
2019-04-23T10:28:06.910Z,18.72
2019-04-23T10:29:09.900Z,18.62
2019-04-23T10:30:14.469Z,18.45
2019-04-23T10:31:18.754Z,18.22
2019-04-23T10:32:22.728Z,17.95
2019-04-23T10:33:27.645Z,17.97
2019-04-23T10:34:43.019Z,17.82
2019-04-23T10:35:47.153Z,17.73
2019-04-23T10:36:42.687Z,17.78
2019-04-23T10:37:54.695Z,17.60
2019-04-23T10:39:00.549Z,17.64
2019-04-23T10:40:00.898Z,17.65
2019-04-23T10:41:04.402Z,17.58
2019-04-23T10:42:09.923Z,17.68
2019-04-23T10:43:15.066Z,17.85
2019-04-23T10:44:21.491Z,17.92
2019-04-23T10:45:51.385Z,17.81
2019-04-23T10:47:02.713Z,17.64
2019-04-23T10:49:47.696Z,17.74
2019-04-23T10:50:59.692Z,17.63
2019-04-23T10:52:07.106Z,17.56
2019-04-23T10:53:19.493Z,17.40
2019-04-23T10:55:27.889Z,17.44
2019-04-23T10:56:27.205Z,17.50
2019-04-23T10:57:25.074Z,17.45
2019-04-23T10:58:35.311Z,17.32
2019-04-23T10:59:43.570Z,17.34
2019-04-23T11:00:53.434Z,17.36
2019-04-23T11:02:10.502Z,17.25
2019-04-23T11:03:09.993Z,17.18
2019-04-23T11:05:35.663Z,17.02
2019-04-23T11:06:36.426Z,16.68
2019-04-23T11:09:52.601Z,16.35
2019-04-23T11:10:46.340Z,16.22
2019-04-23T11:12:03.973Z,16.19
2019-04-23T11:13:12.169Z,16.02
2019-04-23T11:14:19.531Z,15.90
2019-04-23T11:16:50.765Z,15.54
2019-04-23T11:17:34.741Z,15.55
2019-04-23T11:18:46.871Z,15.59
2019-04-23T11:20:41.206Z,15.51
2019-04-23T11:21:58.226Z,15.48
2019-04-23T11:24:10.980Z,15.51
2019-04-23T11:25:20.483Z,15.48
2019-04-23T11:26:22.939Z,15.40
2019-04-23T11:27:22.282Z,15.35
2019-04-23T11:28:29.306Z,15.36
2019-04-23T11:29:34.198Z,15.35
2019-04-23T11:30:36.155Z,15.30
2019-04-23T11:32:53.938Z,15.39
2019-04-23T11:35:15.792Z,15.89
2019-04-23T11:36:33.243Z,16.07
2019-04-23T11:37:14.482Z,16.18
2019-04-23T11:38:44.485Z,16.29
2019-04-23T11:39:23.187Z,16.42
2019-04-23T11:41:48.862Z,17.01
2019-04-23T11:42:46.484Z,17.07
2019-04-23T11:43:40.352Z,17.11
2019-04-23T11:44:49.983Z,17.15
2019-04-23T11:45:57.569Z,17.05
2019-04-23T11:47:04.213Z,17.05
2019-04-23T11:52:36.531Z,16.75
2019-04-23T11:53:35.574Z,16.84
2019-04-23T11:54:36.020Z,16.94
2019-04-23T11:55:49.312Z,17.01
2019-04-23T11:57:15.014Z,17.02
2019-04-23T11:58:13.754Z,17.03
2019-04-23T11:59:12.277Z,17.00
2019-04-23T12:00:06.118Z,16.94
2019-04-23T12:01:23.630Z,17.04
2019-04-23T12:02:32.496Z,17.02
2019-04-23T12:03:41.857Z,16.89
2019-04-23T12:04:49.926Z,16.74
2019-04-23T12:07:25.955Z,16.87
2019-04-23T12:10:07.741Z,16.85
2019-04-23T12:11:36.084Z,16.70
2019-04-23T12:12:11.253Z,16.77
2019-04-23T12:13:21.246Z,16.70
2019-04-23T12:14:37.160Z,16.62
2019-04-23T12:15:32.550Z,16.65
2019-04-23T12:16:55.608Z,16.73
2019-04-23T12:17:41.150Z,16.76
2019-04-23T12:19:14.340Z,16.74
2019-04-23T12:21:20.147Z,16.67
2019-04-23T12:23:40.536Z,16.53
2019-04-23T12:26:53.522Z,16.37
2019-04-23T12:27:39.815Z,16.31
2019-04-23T12:28:57.079Z,16.30
2019-04-23T12:30:01.306Z,16.26
2019-04-23T12:31:10.016Z,16.20
2019-04-23T12:32:41.830Z,16.28
2019-04-23T12:33:36.121Z,16.37
2019-04-23T12:34:47.056Z,16.24
2019-04-23T12:35:33.830Z,16.15
2019-04-23T12:36:46.701Z,16.24
2019-04-23T12:37:55.483Z,16.38
2019-04-23T12:39:04.489Z,16.36
2019-04-23T12:40:15.112Z,16.34
2019-04-23T12:41:14.096Z,16.31
2019-04-23T12:42:41.336Z,16.38
2019-04-23T12:43:20.657Z,16.37
2019-04-23T12:44:30.623Z,16.47
2019-04-23T12:45:37.458Z,16.43
2019-04-23T12:47:59.903Z,16.37
2019-04-23T12:49:00.963Z,16.32
2019-04-23T12:50:38.759Z,16.21
2019-04-23T12:50:58.679Z,16.24
2019-04-23T12:52:12.108Z,16.14
2019-04-23T12:53:24.372Z,16.17
2019-04-23T12:54:38.470Z,16.14
2019-04-23T12:55:31.953Z,16.08
2019-04-23T12:56:42.213Z,16.08
2019-04-23T12:58:36.054Z,15.96
2019-04-23T13:00:48.398Z,15.81
2019-04-23T13:03:18.941Z,15.61
2019-04-23T13:04:09.696Z,15.61
2019-04-23T13:05:18.144Z,15.56
2019-04-23T13:06:16.954Z,15.42
2019-04-23T13:07:36.975Z,15.29
2019-04-23T13:08:41.472Z,15.24
2019-04-23T13:09:49.130Z,15.10
2019-04-23T13:11:01.064Z,15.08
2019-04-23T13:11:50.008Z,14.85
2019-04-23T13:13:11.314Z,14.85
2019-04-23T13:14:06.963Z,14.93
2019-04-23T13:15:11.613Z,14.94
2019-04-23T13:18:23.636Z,15.06
2019-04-23T13:19:39.839Z,15.10
2019-04-23T13:20:32.383Z,15.23
2019-04-23T13:22:00.634Z,15.25
2019-04-23T13:23:47.498Z,15.36
2019-04-23T13:25:02.041Z,15.31
2019-04-23T13:26:04.104Z,15.27
2019-04-23T13:27:23.961Z,15.37
2019-04-23T13:28:23.585Z,15.36
2019-04-23T13:29:41.085Z,15.26
2019-04-23T13:31:34.663Z,15.19
2019-04-23T13:32:55.571Z,15.18
2019-04-23T13:33:51.531Z,15.15
2019-04-23T13:35:08.454Z,15.10
2019-04-23T13:37:13.978Z,15.27
2019-04-23T13:38:28.553Z,15.23
2019-04-23T13:39:24.474Z,15.34
2019-04-23T13:40:32.164Z,15.36
2019-04-23T13:41:33.524Z,15.43
2019-04-23T13:42:45.317Z,15.44
2019-04-23T13:44:49.988Z,15.61
2019-04-23T13:47:00.509Z,15.65
2019-04-23T13:48:06.792Z,15.43
2019-04-23T13:49:09.995Z,15.41
2019-04-23T13:51:34.249Z,15.41
2019-04-23T13:52:51.639Z,15.30
2019-04-23T13:53:49.611Z,15.31
2019-04-23T13:54:54.848Z,15.35
2019-04-23T13:55:42.519Z,15.25
2019-04-23T13:59:03.630Z,15.09
2019-04-23T14:00:08.699Z,15.02
2019-04-23T14:01:20.129Z,15.06
2019-04-23T14:03:32.225Z,14.94
2019-04-23T14:04:38.881Z,14.95
2019-04-23T14:05:45.386Z,15.04
2019-04-23T14:06:47.524Z,15.11
2019-04-23T14:07:57.065Z,15.11
2019-04-23T14:08:59.859Z,15.19
2019-04-23T14:10:13.932Z,15.26
2019-04-23T14:12:20.376Z,15.27
2019-04-23T14:13:37.315Z,15.39
2019-04-23T14:14:41.955Z,15.42
2019-04-23T14:15:54.020Z,15.43
2019-04-23T14:16:51.925Z,15.48
2019-04-23T14:20:09.975Z,15.63
2019-04-23T14:22:48.794Z,15.63
2019-04-23T14:24:28.145Z,15.71
2019-04-23T14:25:41.436Z,15.67
2019-04-23T14:26:39.591Z,15.66
2019-04-23T14:27:56.335Z,15.65
2019-04-23T14:30:07.225Z,15.67
2019-04-23T14:31:08.031Z,15.63
2019-04-23T14:32:18.681Z,15.67
2019-04-23T14:33:17.505Z,15.71
2019-04-23T14:34:21.107Z,15.75
2019-04-23T14:35:40.334Z,15.83
2019-04-23T14:37:59.050Z,15.93
2019-04-23T14:38:43.934Z,16.03
2019-04-23T14:39:46.440Z,16.11
2019-04-23T14:41:05.359Z,16.20
2019-04-23T14:42:16.675Z,16.27
2019-04-23T14:43:12.163Z,16.34
2019-04-23T14:44:19.857Z,16.34
2019-04-23T14:47:39.769Z,16.33
2019-04-23T14:50:12.526Z,16.39
2019-04-23T14:51:00.527Z,16.38
2019-04-23T14:52:00.291Z,16.38
2019-04-23T14:53:16.136Z,16.34
2019-04-23T14:54:17.317Z,16.26
2019-04-23T14:56:32.419Z,16.26
2019-04-23T14:58:44.071Z,16.29
2019-04-23T14:59:45.094Z,16.35
2019-04-23T15:01:06.916Z,16.43
2019-04-23T15:02:00.866Z,16.49
2019-04-23T15:03:07.889Z,16.38
2019-04-23T15:04:02.079Z,16.40
2019-04-23T15:05:17.557Z,16.35
2019-04-23T15:06:29.445Z,16.29
2019-04-23T15:08:30.229Z,16.26
2019-04-23T15:10:57.057Z,16.33
2019-04-23T15:11:53.469Z,16.37
2019-04-23T15:15:24.000Z,16.43
2019-04-23T15:18:35.375Z,16.52
2019-04-23T15:19:56.537Z,16.54
2019-04-23T15:21:34.144Z,16.52
2019-04-23T15:22:15.785Z,16.43
2019-04-23T15:23:37.646Z,16.51
2019-04-23T15:24:27.631Z,16.44
2019-04-23T15:25:40.337Z,16.40
2019-04-23T15:28:26.500Z,16.37
2019-04-23T15:29:42.095Z,16.38
2019-04-23T15:31:04.100Z,16.39
2019-04-23T15:32:05.355Z,16.42
2019-04-23T15:34:13.772Z,16.48
2019-04-23T15:35:32.040Z,16.38
2019-04-23T15:37:43.122Z,16.30
2019-04-23T15:38:43.070Z,16.27
2019-04-23T15:39:49.421Z,16.21
2019-04-23T15:40:53.325Z,16.16
2019-04-23T15:42:08.907Z,16.06
2019-04-23T15:43:02.518Z,16.01
2019-04-23T15:44:08.753Z,15.97
2019-04-23T15:45:11.245Z,16.05
2019-04-23T15:46:24.097Z,16.12
2019-04-23T15:48:26.370Z,16.40
2019-04-23T15:50:46.071Z,16.45
2019-04-23T15:51:54.584Z,16.42
2019-04-23T15:52:54.244Z,16.41
2019-04-23T15:53:56.461Z,16.33
2019-04-23T15:56:16.413Z,16.29
2019-04-23T15:57:07.369Z,16.25
2019-04-23T15:58:28.169Z,16.20
2019-04-23T15:59:31.446Z,16.10
2019-04-23T16:00:22.476Z,16.09
2019-04-23T16:02:10.047Z,16.05
2019-04-23T16:03:15.611Z,15.96
2019-04-23T16:04:20.070Z,16.00
2019-04-23T16:05:25.775Z,15.97
2019-04-23T16:06:32.730Z,15.78
2019-04-23T16:07:54.966Z,15.83
2019-04-23T16:10:17.611Z,15.75
2019-04-23T16:11:33.601Z,15.71
2019-04-23T16:12:27.742Z,15.73
2019-04-23T16:13:38.888Z,15.82
2019-04-23T16:14:40.731Z,15.81
2019-04-23T16:18:07.923Z,15.69
2019-04-23T16:19:07.699Z,15.62
2019-04-23T16:22:36.802Z,15.69
2019-04-23T16:23:29.120Z,15.71
2019-04-23T16:24:26.596Z,15.69
2019-04-23T16:25:36.327Z,15.63
2019-04-23T16:26:55.855Z,15.59
2019-04-23T16:27:58.100Z,15.54
2019-04-23T16:30:15.909Z,15.32
2019-04-23T16:31:20.517Z,15.27
2019-04-23T16:33:16.412Z,15.19
2019-04-23T16:34:33.551Z,15.28
2019-04-23T16:35:51.127Z,15.25
2019-04-23T16:36:54.685Z,15.23
2019-04-23T16:38:18.545Z,15.25
2019-04-23T16:39:09.005Z,15.30
2019-04-23T16:40:26.469Z,15.34
2019-04-23T16:41:20.063Z,15.28
2019-04-23T16:42:23.655Z,15.25
2019-04-23T16:43:40.842Z,15.17
2019-04-23T16:44:41.314Z,15.10
2019-04-23T16:45:42.235Z,15.04
2019-04-23T16:46:48.580Z,14.99
2019-04-23T16:47:53.572Z,14.99
2019-04-23T16:49:12.766Z,15.06
2019-04-23T16:50:04.552Z,15.06
2019-04-23T16:54:24.653Z,14.92
2019-04-23T16:55:34.472Z,14.93
2019-04-23T16:56:42.790Z,14.99
2019-04-23T16:57:43.708Z,15.06
2019-04-23T16:58:54.409Z,15.01
2019-04-23T17:00:08.267Z,14.92
2019-04-23T17:02:12.068Z,14.81
2019-04-23T17:03:19.254Z,14.80
2019-04-23T17:04:18.239Z,14.79
2019-04-23T17:05:20.045Z,14.81
2019-04-23T17:06:24.727Z,14.71
2019-04-23T17:07:22.198Z,14.63
2019-04-23T17:09:42.665Z,14.62
2019-04-23T17:10:53.656Z,14.55
2019-04-23T17:12:01.631Z,14.54
2019-04-23T17:13:06.765Z,14.55
2019-04-23T17:14:09.189Z,14.64
2019-04-23T17:16:15.368Z,14.72
2019-04-23T17:17:15.193Z,14.75
2019-04-23T17:18:24.608Z,14.80
2019-04-23T17:19:27.924Z,14.77
2019-04-23T17:21:38.539Z,14.61
2019-04-23T17:22:46.983Z,14.63
2019-04-23T17:24:08.103Z,14.58
2019-04-23T17:25:07.368Z,14.60
2019-04-23T17:26:13.479Z,14.59
2019-04-23T17:28:20.247Z,14.55
2019-04-23T17:29:21.358Z,14.49
2019-04-23T17:30:28.579Z,14.53
2019-04-23T17:31:35.160Z,14.58
2019-04-23T17:32:47.309Z,14.60
2019-04-23T17:35:11.264Z,14.50
2019-04-23T17:36:30.937Z,14.48
2019-04-23T17:37:57.797Z,14.55
2019-04-23T17:39:52.684Z,14.49
2019-04-23T17:41:31.173Z,14.45
2019-04-23T17:43:25.794Z,14.46
2019-04-23T17:48:13.206Z,14.44
2019-04-23T17:49:16.398Z,14.43
2019-04-23T17:50:23.137Z,14.44
2019-04-23T17:51:21.015Z,14.44
2019-04-23T17:52:34.899Z,14.43
2019-04-23T17:55:57.241Z,14.27
2019-04-23T17:57:01.525Z,14.19
2019-04-23T17:58:03.434Z,14.17
2019-04-23T17:59:04.254Z,14.17
2019-04-23T18:01:24.422Z,14.11
2019-04-23T18:03:34.703Z,14.07
2019-04-23T18:04:43.993Z,14.17
2019-04-23T18:05:46.034Z,14.19
2019-04-23T18:06:55.915Z,14.21
2019-04-23T18:08:06.715Z,14.17
2019-04-23T18:11:16.147Z,14.16
2019-04-23T18:12:30.773Z,14.08
2019-04-23T18:13:36.700Z,14.12
2019-04-23T18:14:31.128Z,14.09
2019-04-23T18:15:45.911Z,14.07
2019-04-23T18:17:00.758Z,14.02
2019-04-23T18:17:54.699Z,14.00
2019-04-23T18:19:07.788Z,14.01
2019-04-23T18:20:16.679Z,13.99
2019-04-23T18:21:44.618Z,13.96
2019-04-23T18:22:42.191Z,13.98
2019-04-23T18:24:13.468Z,14.03
2019-04-23T18:25:39.509Z,14.09
2019-04-23T18:27:50.883Z,13.96
2019-04-23T18:29:07.014Z,13.92
2019-04-23T18:31:20.103Z,13.98
2019-04-23T18:33:01.716Z,13.95
2019-04-23T18:34:03.651Z,13.93
2019-04-23T18:34:59.653Z,13.97
2019-04-23T18:35:40.374Z,14.08
2019-04-23T18:36:59.660Z,14.08
2019-04-23T18:37:58.505Z,14.09
2019-04-23T18:39:06.766Z,14.09
2019-04-23T18:40:05.207Z,14.07
2019-04-23T18:41:15.749Z,14.13
2019-04-23T18:42:34.424Z,14.13
2019-04-23T18:44:38.321Z,14.20
2019-04-23T18:46:42.167Z,14.19
2019-04-23T18:48:52.791Z,14.23
2019-04-23T18:50:03.760Z,14.24
2019-04-23T18:51:16.024Z,14.25
2019-04-23T18:52:14.537Z,14.27
2019-04-23T18:53:22.752Z,14.32
2019-04-23T18:54:24.737Z,14.37
2019-04-23T18:55:58.890Z,14.52
2019-04-23T18:56:59.497Z,14.56
2019-04-23T18:57:55.299Z,14.61
2019-04-23T18:59:00.988Z,14.66
2019-04-23T18:59:57.339Z,14.73
2019-04-23T19:01:05.141Z,14.73
2019-04-23T19:02:44.893Z,14.70
2019-04-23T19:04:11.283Z,14.71
2019-04-23T19:05:10.603Z,14.67
2019-04-23T19:07:45.121Z,14.63
2019-04-23T19:10:32.127Z,14.50
2019-04-23T19:11:44.326Z,14.53
2019-04-23T19:12:44.385Z,14.51
2019-04-23T19:13:44.672Z,14.52
2019-04-23T19:14:56.117Z,14.54
2019-04-23T19:15:45.867Z,14.54
2019-04-23T19:18:04.183Z,14.50
2019-04-23T19:19:33.605Z,14.42
2019-04-23T19:22:36.359Z,14.39
2019-04-23T19:23:42.835Z,14.42
2019-04-23T19:24:46.743Z,14.49
2019-04-23T19:25:46.761Z,14.45
2019-04-23T19:28:10.409Z,14.50
2019-04-23T19:30:14.116Z,14.50
2019-04-23T19:31:27.584Z,14.50
2019-04-23T19:32:14.172Z,14.50
2019-04-23T19:33:36.657Z,14.48
2019-04-23T19:34:40.794Z,14.47
2019-04-23T19:37:55.627Z,14.31
2019-04-23T19:39:03.220Z,14.30
2019-04-23T19:40:00.251Z,14.37
2019-04-23T19:41:12.911Z,14.44
2019-04-23T19:42:29.958Z,14.44
2019-04-23T19:43:19.102Z,14.43
2019-04-23T19:44:24.998Z,14.36
2019-04-23T19:45:40.431Z,14.44
2019-04-23T19:46:48.995Z,14.48
2019-04-23T19:47:55.954Z,14.45
2019-04-23T19:49:05.759Z,14.45
2019-04-23T19:50:03.699Z,14.43
2019-04-23T19:52:00.918Z,14.48
2019-04-23T19:53:32.368Z,14.52
2019-04-23T19:54:35.932Z,14.43
2019-04-23T19:55:21.458Z,14.38
2019-04-23T19:56:29.203Z,14.43
2019-04-23T19:57:37.623Z,14.37
2019-04-23T19:58:46.972Z,14.33
2019-04-23T19:59:45.157Z,14.32
2019-04-23T20:01:03.684Z,14.33
2019-04-23T20:01:58.893Z,14.30
2019-04-23T20:04:18.088Z,14.27
2019-04-23T20:05:07.270Z,14.25
2019-04-23T20:06:26.697Z,14.27
2019-04-23T20:07:22.428Z,14.26
2019-04-23T20:08:41.205Z,14.13
2019-04-23T20:09:43.807Z,14.16
2019-04-23T20:10:39.806Z,14.16
2019-04-23T20:11:53.285Z,14.16
2019-04-23T20:12:51.755Z,14.20
2019-04-23T20:14:58.261Z,14.26
2019-04-23T20:16:10.893Z,14.25
2019-04-23T20:18:26.912Z,14.29
2019-04-23T20:19:30.108Z,14.29
2019-04-23T20:20:35.300Z,14.21
2019-04-23T20:21:38.885Z,14.24
2019-04-23T20:22:50.763Z,14.24
2019-04-23T20:24:04.769Z,14.22
2019-04-23T20:27:13.995Z,14.23
2019-04-23T20:28:24.152Z,14.29
2019-04-23T20:33:20.902Z,14.32
2019-04-23T20:34:11.455Z,14.33
2019-04-23T20:35:06.624Z,14.37
2019-04-23T20:36:14.646Z,14.37
2019-04-23T20:37:05.563Z,14.35
2019-04-23T20:39:39.713Z,14.30
2019-04-23T20:40:34.503Z,14.25
2019-04-23T20:42:07.878Z,14.26
2019-04-23T20:42:54.927Z,14.24
2019-04-23T20:44:01.782Z,14.21
2019-04-23T20:45:05.992Z,14.21
2019-04-23T20:48:25.302Z,14.29
2019-04-23T20:49:40.178Z,14.33
2019-04-23T20:50:34.490Z,14.37
2019-04-23T20:51:41.313Z,14.41
2019-04-23T20:52:41.164Z,14.49
2019-04-23T20:53:55.329Z,14.46
2019-04-23T20:55:08.111Z,14.45
2019-04-23T20:57:42.931Z,14.46
2019-04-23T20:59:43.811Z,14.44
2019-04-23T21:00:57.146Z,14.31
2019-04-23T21:02:15.170Z,14.28
2019-04-23T21:04:37.834Z,14.24
2019-04-23T21:06:39.774Z,14.23
2019-04-23T21:07:54.026Z,14.23
2019-04-23T21:09:05.721Z,14.21
2019-04-23T21:10:01.399Z,14.19
2019-04-23T21:10:51.107Z,14.15
2019-04-23T21:12:04.934Z,14.09
2019-04-23T21:14:53.977Z,14.07
2019-04-23T21:15:24.144Z,14.06
2019-04-23T21:16:25.139Z,13.97
2019-04-23T21:17:42.380Z,13.97
2019-04-23T21:18:37.062Z,14.07
2019-04-23T21:19:50.472Z,14.09
2019-04-23T21:20:40.122Z,14.10
2019-04-23T21:22:09.292Z,14.09
2019-04-23T21:23:14.562Z,14.04
2019-04-23T21:24:16.902Z,14.08
2019-04-23T21:25:27.915Z,14.07
2019-04-23T21:26:30.728Z,14.06
2019-04-23T21:29:58.516Z,13.98
2019-04-23T21:32:09.244Z,14.03
2019-04-23T21:36:37.654Z,13.78
2019-04-23T21:39:12.058Z,13.83
2019-04-23T21:40:45.086Z,13.86
2019-04-23T21:42:58.939Z,13.82
2019-04-23T21:46:05.997Z,13.77
2019-04-23T21:47:25.268Z,13.77
2019-04-23T21:48:15.466Z,13.72
2019-04-23T21:49:25.252Z,13.62
2019-04-23T21:52:36.165Z,13.82
2019-04-23T21:53:50.694Z,13.82
2019-04-23T21:54:43.075Z,13.80
2019-04-23T21:57:08.803Z,13.80
2019-04-23T21:59:07.331Z,13.83
2019-04-23T22:00:14.168Z,13.82
2019-04-23T22:02:32.219Z,13.83
2019-04-23T22:04:00.594Z,13.82
2019-04-23T22:05:49.665Z,13.79
2019-04-23T22:06:47.979Z,13.81
2019-04-23T22:09:10.404Z,13.86
2019-04-23T22:10:11.685Z,13.87
2019-04-23T22:11:37.600Z,13.86
2019-04-23T22:12:15.043Z,13.86
2019-04-23T22:13:29.405Z,13.80
2019-04-23T22:15:46.516Z,13.75
2019-04-23T22:16:52.024Z,13.71
2019-04-23T22:17:44.352Z,13.66
2019-04-23T22:19:05.678Z,13.70
2019-04-23T22:20:04.060Z,13.57
2019-04-23T22:21:06.558Z,13.55
2019-04-23T22:22:02.553Z,13.50
2019-04-23T22:23:33.829Z,13.52
2019-04-23T22:24:13.382Z,13.53
2019-04-23T22:25:27.775Z,13.49
2019-04-23T22:27:38.405Z,13.44
2019-04-23T22:28:52.786Z,13.46
2019-04-23T22:29:45.447Z,13.50
2019-04-23T22:30:55.041Z,13.47
2019-04-23T22:31:51.275Z,13.41
2019-04-23T22:33:09.491Z,13.39
2019-04-23T22:34:22.273Z,13.39
2019-04-23T22:35:10.728Z,13.41
2019-04-23T22:36:22.823Z,13.41
2019-04-23T22:37:25.388Z,13.30
2019-04-23T22:38:37.659Z,13.30
2019-04-23T22:39:39.907Z,13.27
2019-04-23T22:40:49.703Z,13.27
2019-04-23T22:42:10.238Z,13.24
2019-04-23T22:43:14.948Z,13.39
2019-04-23T22:44:05.393Z,13.42
2019-04-23T22:46:18.244Z,13.37
2019-04-23T22:47:07.144Z,13.37
2019-04-23T22:48:29.621Z,13.34
2019-04-23T22:49:51.369Z,13.28
2019-04-23T22:50:47.115Z,13.30
2019-04-23T22:52:53.704Z,13.26
2019-04-23T22:54:02.687Z,13.26
2019-04-23T22:55:07.671Z,13.18
2019-04-23T22:56:10.737Z,13.20
2019-04-23T22:57:04.472Z,13.10
2019-04-23T22:58:09.598Z,12.99
2019-04-23T23:00:46.384Z,13.14
2019-04-23T23:01:50.451Z,13.20
2019-04-23T23:02:54.088Z,13.20
2019-04-23T23:04:04.977Z,13.20
2019-04-23T23:05:15.013Z,13.05
2019-04-23T23:06:17.482Z,13.05
2019-04-23T23:07:19.722Z,13.11
2019-04-23T23:08:31.250Z,13.25
2019-04-23T23:09:36.058Z,13.25
2019-04-23T23:10:37.707Z,13.23
2019-04-23T23:11:44.495Z,13.26
2019-04-23T23:13:00.025Z,13.20
2019-04-23T23:14:10.119Z,13.15
2019-04-23T23:15:03.348Z,13.14
2019-04-23T23:17:03.510Z,13.05
2019-04-23T23:18:19.659Z,13.05
2019-04-23T23:19:28.490Z,13.19
2019-04-23T23:21:32.500Z,13.00
2019-04-23T23:23:40.880Z,12.94
2019-04-23T23:24:56.425Z,12.95
2019-04-23T23:25:55.327Z,12.98
2019-04-23T23:28:11.600Z,13.05
2019-04-23T23:29:08.492Z,13.03
2019-04-23T23:33:36.241Z,12.92
2019-04-23T23:34:50.449Z,12.87
2019-04-23T23:35:44.481Z,12.85
2019-04-23T23:36:54.936Z,12.85
2019-04-23T23:40:14.698Z,12.63
2019-04-23T23:41:19.116Z,12.63
2019-04-23T23:45:35.493Z,12.62
2019-04-23T23:47:43.359Z,12.68
2019-04-23T23:48:52.427Z,12.68
2019-04-23T23:50:01.078Z,12.64
2019-04-23T23:52:25.525Z,12.54
2019-04-23T23:53:11.758Z,12.55
2019-04-23T23:55:19.586Z,12.56
2019-04-23T23:56:20.694Z,12.59
2019-04-23T23:57:30.441Z,12.59
2019-04-23T23:58:43.692Z,12.60
